sensor_id;sensor_type;location;lat;lon;timestamp;temperature;humidity
19555;DHT22;9924;50.828;6.440;2024-03-23T00:53:08;7.30;99.90
19555;DHT22;9924;50.828;6.440;2024-03-23T00:55:34;7.20;99.90
19555;DHT22;9924;50.828;6.440;2024-03-23T00:57:59;7.20;99.90
19555;DHT22;9924;50.828;6.440;2024-03-23T01:00:25;7.20;99.90
19555;DHT22;9924;50.828;6.440;2024-03-23T01:02:50;7.20;99.90
19555;DHT22;9924;50.828;6.440;2024-03-23T01:05:16;7.20;99.90
19555;DHT22;9924;50.828;6.440;2024-03-23T01:07:42;7.30;99.90
19555;DHT22;9924;50.828;6.440;2024-03-23T01:10:08;7.40;99.90
19555;DHT22;9924;50.828;6.440;2024-03-23T01:12:33;7.30;99.90
19555;DHT22;9924;50.828;6.440;2024-03-23T01:14:59;7.30;99.90
19555;DHT22;9924;50.828;6.440;2024-03-23T01:17:25;7.30;99.90
19555;DHT22;9924;50.828;6.440;2024-03-23T01:19:50;7.30;99.90
19555;DHT22;9924;50.828;6.440;2024-03-23T01:22:16;7.30;99.90
19555;DHT22;9924;50.828;6.440;2024-03-23T01:24:41;7.20;99.90
19555;DHT22;9924;50.828;6.440;2024-03-23T01:27:08;7.10;99.90
19555;DHT22;9924;50.828;6.440;2024-03-23T01:29:34;7.00;99.90
19555;DHT22;9924;50.828;6.440;2024-03-23T01:31:59;7.00;99.90
19555;DHT22;9924;50.828;6.440;2024-03-23T01:34:25;7.00;99.90
19555;DHT22;9924;50.828;6.440;2024-03-23T01:36:51;7.00;99.90
19555;DHT22;9924;50.828;6.440;2024-03-23T01:39:17;7.00;99.90
19555;DHT22;9924;50.828;6.440;2024-03-23T01:41:42;7.00;99.90
19555;DHT22;9924;50.828;6.440;2024-03-23T01:44:08;7.00;99.90
19555;DHT22;9924;50.828;6.440;2024-03-23T01:46:37;6.80;99.90
19555;DHT22;9924;50.828;6.440;2024-03-23T01:49:05;6.60;99.90
19555;DHT22;9924;50.828;6.440;2024-03-23T01:51:30;6.40;99.90
19555;DHT22;9924;50.828;6.440;2024-03-23T01:53:57;6.20;99.90
19555;DHT22;9924;50.828;6.440;2024-03-23T01:56:26;6.10;99.90
19555;DHT22;9924;50.828;6.440;2024-03-23T01:58:52;6.10;99.90
19555;DHT22;9924;50.828;6.440;2024-03-23T02:01:17;6.00;99.90
19555;DHT22;9924;50.828;6.440;2024-03-23T02:03:44;6.00;99.90
19555;DHT22;9924;50.828;6.440;2024-03-23T02:06:10;6.00;99.90
19555;DHT22;9924;50.828;6.440;2024-03-23T02:08:36;5.90;99.90
19555;DHT22;9924;50.828;6.440;2024-03-23T02:11:02;5.90;99.90
19555;DHT22;9924;50.828;6.440;2024-03-23T02:13:28;6.00;99.90
19555;DHT22;9924;50.828;6.440;2024-03-23T02:15:53;6.10;99.90
19555;DHT22;9924;50.828;6.440;2024-03-23T02:18:19;6.00;99.90
19555;DHT22;9924;50.828;6.440;2024-03-23T02:20:45;6.00;99.90
19555;DHT22;9924;50.828;6.440;2024-03-23T02:23:14;6.00;99.90
19555;DHT22;9924;50.828;6.440;2024-03-23T02:25:40;5.90;99.90
19555;DHT22;9924;50.828;6.440;2024-03-23T02:28:06;5.90;99.90
19555;DHT22;9924;50.828;6.440;2024-03-23T02:30:32;5.90;99.90
19555;DHT22;9924;50.828;6.440;2024-03-23T02:32:58;5.90;99.90
19555;DHT22;9924;50.828;6.440;2024-03-23T02:35:23;5.90;99.90
19555;DHT22;9924;50.828;6.440;2024-03-23T02:37:49;5.90;99.90
19555;DHT22;9924;50.828;6.440;2024-03-23T02:40:16;5.90;99.90
19555;DHT22;9924;50.828;6.440;2024-03-23T02:42:42;5.90;99.90
19555;DHT22;9924;50.828;6.440;2024-03-23T02:45:07;6.00;99.90
19555;DHT22;9924;50.828;6.440;2024-03-23T02:47:33;6.00;99.90
19555;DHT22;9924;50.828;6.440;2024-03-23T02:49:59;6.00;99.90
19555;DHT22;9924;50.828;6.440;2024-03-23T02:52:25;5.90;99.90
19555;DHT22;9924;50.828;6.440;2024-03-23T02:54:50;5.90;99.90
19555;DHT22;9924;50.828;6.440;2024-03-23T02:57:16;6.00;99.90
19555;DHT22;9924;50.828;6.440;2024-03-23T02:59:42;6.00;99.90
19555;DHT22;9924;50.828;6.440;2024-03-23T03:02:07;5.90;99.90
19555;DHT22;9924;50.828;6.440;2024-03-23T03:04:33;5.90;99.90
19555;DHT22;9924;50.828;6.440;2024-03-23T03:06:59;5.90;99.90
19555;DHT22;9924;50.828;6.440;2024-03-23T03:09:25;5.80;99.90
19555;DHT22;9924;50.828;6.440;2024-03-23T03:11:51;5.80;99.90
19555;DHT22;9924;50.828;6.440;2024-03-23T03:14:16;5.70;99.90
19555;DHT22;9924;50.828;6.440;2024-03-23T03:16:42;5.80;99.90
19555;DHT22;9924;50.828;6.440;2024-03-23T03:19:08;6.00;99.90
19555;DHT22;9924;50.828;6.440;2024-03-23T03:21:36;6.00;99.90
19555;DHT22;9924;50.828;6.440;2024-03-23T03:24:02;6.10;99.90
19555;DHT22;9924;50.828;6.440;2024-03-23T03:26:28;6.10;99.90
19555;DHT22;9924;50.828;6.440;2024-03-23T03:28:54;6.20;99.90
19555;DHT22;9924;50.828;6.440;2024-03-23T03:31:20;6.20;99.90
19555;DHT22;9924;50.828;6.440;2024-03-23T03:33:46;6.30;99.90
19555;DHT22;9924;50.828;6.440;2024-03-23T03:36:12;6.30;99.90
19555;DHT22;9924;50.828;6.440;2024-03-23T03:38:37;6.30;99.90
19555;DHT22;9924;50.828;6.440;2024-03-23T03:41:06;6.30;99.90
19555;DHT22;9924;50.828;6.440;2024-03-23T03:43:32;6.30;99.90
19555;DHT22;9924;50.828;6.440;2024-03-23T03:46:00;6.30;99.90
19555;DHT22;9924;50.828;6.440;2024-03-23T03:48:26;6.30;99.90
19555;DHT22;9924;50.828;6.440;2024-03-23T03:50:52;6.30;99.90
19555;DHT22;9924;50.828;6.440;2024-03-23T03:53:19;6.30;99.90
19555;DHT22;9924;50.828;6.440;2024-03-23T03:55:44;6.30;99.90
19555;DHT22;9924;50.828;6.440;2024-03-23T03:58:10;6.30;99.90
19555;DHT22;9924;50.828;6.440;2024-03-23T04:00:36;6.20;99.90
19555;DHT22;9924;50.828;6.440;2024-03-23T04:03:02;6.30;99.90
19555;DHT22;9924;50.828;6.440;2024-03-23T04:05:28;6.20;99.90
19555;DHT22;9924;50.828;6.440;2024-03-23T04:07:54;6.20;99.90
19555;DHT22;9924;50.828;6.440;2024-03-23T04:10:20;6.10;99.90
19555;DHT22;9924;50.828;6.440;2024-03-23T04:12:47;6.10;99.90
19555;DHT22;9924;50.828;6.440;2024-03-23T04:15:13;6.00;99.90
19555;DHT22;9924;50.828;6.440;2024-03-23T04:17:39;6.00;99.90
19555;DHT22;9924;50.828;6.440;2024-03-23T04:20:05;6.00;99.90
19555;DHT22;9924;50.828;6.440;2024-03-23T04:22:35;5.90;99.90
19555;DHT22;9924;50.828;6.440;2024-03-23T04:25:00;5.80;99.90
19555;DHT22;9924;50.828;6.440;2024-03-23T04:27:35;5.80;99.90
19555;DHT22;9924;50.828;6.440;2024-03-23T04:30:00;5.80;99.90
19555;DHT22;9924;50.828;6.440;2024-03-23T04:32:27;5.70;99.90
19555;DHT22;9924;50.828;6.440;2024-03-23T04:34:53;5.70;99.90
19555;DHT22;9924;50.828;6.440;2024-03-23T04:37:23;5.80;99.90
19555;DHT22;9924;50.828;6.440;2024-03-23T04:39:49;5.70;99.90
19555;DHT22;9924;50.828;6.440;2024-03-23T04:42:15;5.70;99.90
19555;DHT22;9924;50.828;6.440;2024-03-23T04:44:41;5.70;99.90
19555;DHT22;9924;50.828;6.440;2024-03-23T04:47:07;5.70;99.90
19555;DHT22;9924;50.828;6.440;2024-03-23T04:49:33;5.70;99.90
19555;DHT22;9924;50.828;6.440;2024-03-23T04:51:59;5.60;99.90
19555;DHT22;9924;50.828;6.440;2024-03-23T04:54:24;5.70;99.90
19555;DHT22;9924;50.828;6.440;2024-03-23T04:56:50;5.70;99.90
19555;DHT22;9924;50.828;6.440;2024-03-23T04:59:16;5.70;99.90
19555;DHT22;9924;50.828;6.440;2024-03-23T05:01:41;5.70;99.90
19555;DHT22;9924;50.828;6.440;2024-03-23T05:04:08;5.70;99.90
19555;DHT22;9924;50.828;6.440;2024-03-23T05:06:34;5.60;99.90
19555;DHT22;9924;50.828;6.440;2024-03-23T05:09:00;5.60;99.90
19555;DHT22;9924;50.828;6.440;2024-03-23T05:11:32;5.60;99.90
19555;DHT22;9924;50.828;6.440;2024-03-23T05:13:58;5.50;99.90
19555;DHT22;9924;50.828;6.440;2024-03-23T05:16:23;5.60;99.90
19555;DHT22;9924;50.828;6.440;2024-03-23T05:18:49;5.50;99.90
19555;DHT22;9924;50.828;6.440;2024-03-23T05:21:14;5.50;99.90
19555;DHT22;9924;50.828;6.440;2024-03-23T05:23:40;5.50;99.90
19555;DHT22;9924;50.828;6.440;2024-03-23T05:26:06;5.50;99.90
19555;DHT22;9924;50.828;6.440;2024-03-23T05:28:31;5.50;99.90
19555;DHT22;9924;50.828;6.440;2024-03-23T05:30:57;5.50;99.90
19555;DHT22;9924;50.828;6.440;2024-03-23T05:33:23;5.50;99.90
19555;DHT22;9924;50.828;6.440;2024-03-23T05:35:57;5.50;99.90
19555;DHT22;9924;50.828;6.440;2024-03-23T05:38:22;5.50;99.90
19555;DHT22;9924;50.828;6.440;2024-03-23T05:40:59;5.50;99.90
19555;DHT22;9924;50.828;6.440;2024-03-23T05:43:25;5.50;99.90
19555;DHT22;9924;50.828;6.440;2024-03-23T05:45:58;5.50;99.90
19555;DHT22;9924;50.828;6.440;2024-03-23T05:48:28;5.40;99.90
19555;DHT22;9924;50.828;6.440;2024-03-23T05:50:54;5.40;99.90
19555;DHT22;9924;50.828;6.440;2024-03-23T05:53:20;5.40;99.90
19555;DHT22;9924;50.828;6.440;2024-03-23T05:55:46;5.30;99.90
19555;DHT22;9924;50.828;6.440;2024-03-23T05:58:14;5.20;99.90
19555;DHT22;9924;50.828;6.440;2024-03-23T06:00:40;5.20;99.90
19555;DHT22;9924;50.828;6.440;2024-03-23T06:03:07;5.20;99.90
19555;DHT22;9924;50.828;6.440;2024-03-23T06:05:32;5.10;99.90
19555;DHT22;9924;50.828;6.440;2024-03-23T06:07:58;5.10;99.90
19555;DHT22;9924;50.828;6.440;2024-03-23T06:10:24;5.20;99.90
19555;DHT22;9924;50.828;6.440;2024-03-23T06:12:49;5.20;99.90
19555;DHT22;9924;50.828;6.440;2024-03-23T06:15:21;5.20;99.90
19555;DHT22;9924;50.828;6.440;2024-03-23T06:17:48;5.30;99.90
19555;DHT22;9924;50.828;6.440;2024-03-23T06:20:14;5.30;99.90
19555;DHT22;9924;50.828;6.440;2024-03-23T06:22:39;5.40;99.90
19555;DHT22;9924;50.828;6.440;2024-03-23T06:25:05;5.50;99.90
19555;DHT22;9924;50.828;6.440;2024-03-23T06:27:32;5.70;99.90
19555;DHT22;9924;50.828;6.440;2024-03-23T06:30:01;5.80;99.90
19555;DHT22;9924;50.828;6.440;2024-03-23T06:32:27;6.00;99.90
19555;DHT22;9924;50.828;6.440;2024-03-23T06:34:54;6.20;99.90
19555;DHT22;9924;50.828;6.440;2024-03-23T06:37:20;6.40;99.90
19555;DHT22;9924;50.828;6.440;2024-03-23T06:39:46;6.50;99.90
19555;DHT22;9924;50.828;6.440;2024-03-23T06:42:12;6.60;99.90
19555;DHT22;9924;50.828;6.440;2024-03-23T06:44:38;6.70;99.90
19555;DHT22;9924;50.828;6.440;2024-03-23T06:47:05;6.90;99.90
19555;DHT22;9924;50.828;6.440;2024-03-23T06:49:30;7.00;99.90
19555;DHT22;9924;50.828;6.440;2024-03-23T06:51:56;7.20;99.90
19555;DHT22;9924;50.828;6.440;2024-03-23T06:54:22;7.30;99.90
19555;DHT22;9924;50.828;6.440;2024-03-23T06:56:47;7.40;99.90
19555;DHT22;9924;50.828;6.440;2024-03-23T06:59:13;7.50;99.90
19555;DHT22;9924;50.828;6.440;2024-03-23T07:01:39;7.50;99.90
19555;DHT22;9924;50.828;6.440;2024-03-23T07:04:04;7.60;99.90
19555;DHT22;9924;50.828;6.440;2024-03-23T07:06:31;7.80;99.90
19555;DHT22;9924;50.828;6.440;2024-03-23T07:08:57;7.90;99.90
19555;DHT22;9924;50.828;6.440;2024-03-23T07:11:23;7.90;99.90
19555;DHT22;9924;50.828;6.440;2024-03-23T07:13:52;8.00;99.90
19555;DHT22;9924;50.828;6.440;2024-03-23T07:16:20;8.10;99.90
19555;DHT22;9924;50.828;6.440;2024-03-23T07:18:46;8.20;99.90
19555;DHT22;9924;50.828;6.440;2024-03-23T07:21:12;8.50;99.90
19555;DHT22;9924;50.828;6.440;2024-03-23T07:23:38;8.80;99.90
19555;DHT22;9924;50.828;6.440;2024-03-23T07:26:05;8.20;99.90
19555;DHT22;9924;50.828;6.440;2024-03-23T07:28:34;7.10;99.90
19555;DHT22;9924;50.828;6.440;2024-03-23T07:31:05;6.50;99.90
19555;DHT22;9924;50.828;6.440;2024-03-23T07:33:32;6.00;99.90
19555;DHT22;9924;50.828;6.440;2024-03-23T07:35:58;5.80;99.90
19555;DHT22;9924;50.828;6.440;2024-03-23T07:38:32;5.70;99.90
19555;DHT22;9924;50.828;6.440;2024-03-23T07:41:05;5.70;99.90
19555;DHT22;9924;50.828;6.440;2024-03-23T07:43:31;5.60;99.90
19555;DHT22;9924;50.828;6.440;2024-03-23T07:45:57;5.70;99.90
19555;DHT22;9924;50.828;6.440;2024-03-23T07:48:22;5.80;99.90
19555;DHT22;9924;50.828;6.440;2024-03-23T07:51:06;6.10;99.90
19555;DHT22;9924;50.828;6.440;2024-03-23T07:53:33;6.30;99.90
19555;DHT22;9924;50.828;6.440;2024-03-23T07:56:05;6.80;99.90
19555;DHT22;9924;50.828;6.440;2024-03-23T07:58:30;7.20;99.90
19555;DHT22;9924;50.828;6.440;2024-03-23T08:01:01;7.60;99.90
19555;DHT22;9924;50.828;6.440;2024-03-23T08:03:28;8.00;99.90
19555;DHT22;9924;50.828;6.440;2024-03-23T08:05:54;8.30;99.90
19555;DHT22;9924;50.828;6.440;2024-03-23T08:08:19;8.60;99.90
19555;DHT22;9924;50.828;6.440;2024-03-23T08:10:52;8.60;99.90
19555;DHT22;9924;50.828;6.440;2024-03-23T08:13:19;8.70;99.90
19555;DHT22;9924;50.828;6.440;2024-03-23T08:15:45;8.90;99.90
19555;DHT22;9924;50.828;6.440;2024-03-23T08:18:12;9.10;99.90
19555;DHT22;9924;50.828;6.440;2024-03-23T08:20:39;9.20;99.90
19555;DHT22;9924;50.828;6.440;2024-03-23T08:23:06;9.20;99.90
19555;DHT22;9924;50.828;6.440;2024-03-23T08:25:32;9.00;99.90
19555;DHT22;9924;50.828;6.440;2024-03-23T08:27:59;8.90;99.90
19555;DHT22;9924;50.828;6.440;2024-03-23T08:30:25;8.80;99.90
19555;DHT22;9924;50.828;6.440;2024-03-23T08:32:51;8.50;99.90
19555;DHT22;9924;50.828;6.440;2024-03-23T08:35:17;8.40;99.90
19555;DHT22;9924;50.828;6.440;2024-03-23T08:37:43;8.30;99.90
19555;DHT22;9924;50.828;6.440;2024-03-23T08:40:09;8.20;99.90
19555;DHT22;9924;50.828;6.440;2024-03-23T08:42:36;8.10;99.90
19555;DHT22;9924;50.828;6.440;2024-03-23T08:45:02;8.20;99.90
19555;DHT22;9924;50.828;6.440;2024-03-23T08:47:28;8.30;99.90
19555;DHT22;9924;50.828;6.440;2024-03-23T08:49:55;8.50;99.90
19555;DHT22;9924;50.828;6.440;2024-03-23T08:52:24;8.90;99.90
19555;DHT22;9924;50.828;6.440;2024-03-23T08:54:51;9.00;99.90
19555;DHT22;9924;50.828;6.440;2024-03-23T08:57:16;9.10;99.90
19555;DHT22;9924;50.828;6.440;2024-03-23T08:59:42;9.00;99.90
19555;DHT22;9924;50.828;6.440;2024-03-23T09:02:08;8.70;99.90
19555;DHT22;9924;50.828;6.440;2024-03-23T09:04:34;8.70;99.90
19555;DHT22;9924;50.828;6.440;2024-03-23T09:07:00;9.00;99.90
19555;DHT22;9924;50.828;6.440;2024-03-23T09:09:26;9.20;99.90
19555;DHT22;9924;50.828;6.440;2024-03-23T09:11:51;9.40;99.90
19555;DHT22;9924;50.828;6.440;2024-03-23T09:14:17;9.70;99.90
19555;DHT22;9924;50.828;6.440;2024-03-23T09:16:43;10.10;99.90
19555;DHT22;9924;50.828;6.440;2024-03-23T09:19:08;10.30;99.90
19555;DHT22;9924;50.828;6.440;2024-03-23T09:21:34;10.10;99.90
19555;DHT22;9924;50.828;6.440;2024-03-23T09:23:59;9.90;99.90
19555;DHT22;9924;50.828;6.440;2024-03-23T09:26:26;9.90;99.90
19555;DHT22;9924;50.828;6.440;2024-03-23T09:28:52;10.30;99.90
19555;DHT22;9924;50.828;6.440;2024-03-23T09:31:17;10.60;99.90
19555;DHT22;9924;50.828;6.440;2024-03-23T09:33:43;11.00;99.90
19555;DHT22;9924;50.828;6.440;2024-03-23T09:36:09;11.50;99.90
19555;DHT22;9924;50.828;6.440;2024-03-23T09:38:35;11.60;99.90
19555;DHT22;9924;50.828;6.440;2024-03-23T09:41:06;11.60;99.90
19555;DHT22;9924;50.828;6.440;2024-03-23T09:43:32;11.30;99.90
19555;DHT22;9924;50.828;6.440;2024-03-23T09:45:57;10.90;99.90
19555;DHT22;9924;50.828;6.440;2024-03-23T09:48:23;10.60;99.90
19555;DHT22;9924;50.828;6.440;2024-03-23T09:50:50;10.30;99.90
19555;DHT22;9924;50.828;6.440;2024-03-23T09:53:21;9.80;99.90
19555;DHT22;9924;50.828;6.440;2024-03-23T09:55:48;9.50;99.90
19555;DHT22;9924;50.828;6.440;2024-03-23T09:58:16;9.10;99.90
19555;DHT22;9924;50.828;6.440;2024-03-23T10:00:42;8.50;99.90
19555;DHT22;9924;50.828;6.440;2024-03-23T10:03:08;8.00;99.90
19555;DHT22;9924;50.828;6.440;2024-03-23T10:05:37;7.90;99.90
19555;DHT22;9924;50.828;6.440;2024-03-23T10:10:41;7.90;99.90
19555;DHT22;9924;50.828;6.440;2024-03-23T10:13:07;7.90;99.90
19555;DHT22;9924;50.828;6.440;2024-03-23T10:15:36;7.70;99.90
19555;DHT22;9924;50.828;6.440;2024-03-23T10:18:20;7.60;99.90
19555;DHT22;9924;50.828;6.440;2024-03-23T10:23:34;8.10;99.90
19555;DHT22;9924;50.828;6.440;2024-03-23T10:26:22;8.70;99.90
19555;DHT22;9924;50.828;6.440;2024-03-23T10:28:56;9.60;99.90
19555;DHT22;9924;50.828;6.440;2024-03-23T10:31:33;10.10;99.90
19555;DHT22;9924;50.828;6.440;2024-03-23T10:33:59;10.50;99.90
19555;DHT22;9924;50.828;6.440;2024-03-23T10:36:26;11.10;99.90
19555;DHT22;9924;50.828;6.440;2024-03-23T10:38:53;11.40;99.90
19555;DHT22;9924;50.828;6.440;2024-03-23T10:41:19;11.20;99.90
19555;DHT22;9924;50.828;6.440;2024-03-23T10:43:47;10.70;99.90
19555;DHT22;9924;50.828;6.440;2024-03-23T10:46:14;10.70;99.90
19555;DHT22;9924;50.828;6.440;2024-03-23T10:48:40;10.50;99.90
19555;DHT22;9924;50.828;6.440;2024-03-23T10:51:10;10.40;99.90
19555;DHT22;9924;50.828;6.440;2024-03-23T10:53:36;10.00;99.90
19555;DHT22;9924;50.828;6.440;2024-03-23T10:56:06;9.50;99.90
19555;DHT22;9924;50.828;6.440;2024-03-23T10:58:43;9.10;99.90
19555;DHT22;9924;50.828;6.440;2024-03-23T11:01:13;9.00;99.90
19555;DHT22;9924;50.828;6.440;2024-03-23T11:03:40;8.90;99.90
19555;DHT22;9924;50.828;6.440;2024-03-23T11:06:09;8.90;99.90
19555;DHT22;9924;50.828;6.440;2024-03-23T11:08:37;9.20;99.90
19555;DHT22;9924;50.828;6.440;2024-03-23T11:11:22;10.00;99.90
19555;DHT22;9924;50.828;6.440;2024-03-23T11:13:52;10.70;99.90
19555;DHT22;9924;50.828;6.440;2024-03-23T11:16:26;11.40;99.90
19555;DHT22;9924;50.828;6.440;2024-03-23T11:19:33;11.80;99.90
19555;DHT22;9924;50.828;6.440;2024-03-23T11:21:59;12.30;99.90
19555;DHT22;9924;50.828;6.440;2024-03-23T11:24:26;12.00;99.90
19555;DHT22;9924;50.828;6.440;2024-03-23T11:26:51;11.90;99.90
19555;DHT22;9924;50.828;6.440;2024-03-23T11:29:17;11.60;99.90
19555;DHT22;9924;50.828;6.440;2024-03-23T11:31:51;11.30;99.90
19555;DHT22;9924;50.828;6.440;2024-03-23T11:34:17;11.60;99.90
19555;DHT22;9924;50.828;6.440;2024-03-23T11:36:50;11.60;99.90
19555;DHT22;9924;50.828;6.440;2024-03-23T11:39:19;11.40;99.90
19555;DHT22;9924;50.828;6.440;2024-03-23T11:41:50;11.00;99.90
19555;DHT22;9924;50.828;6.440;2024-03-23T11:44:17;10.80;99.90
19555;DHT22;9924;50.828;6.440;2024-03-23T11:46:42;11.50;99.90
19555;DHT22;9924;50.828;6.440;2024-03-23T11:49:28;12.10;99.90
19555;DHT22;9924;50.828;6.440;2024-03-23T11:51:56;12.80;99.90
19555;DHT22;9924;50.828;6.440;2024-03-23T11:54:23;12.80;99.90
19555;DHT22;9924;50.828;6.440;2024-03-23T11:57:02;12.70;99.90
19555;DHT22;9924;50.828;6.440;2024-03-23T11:59:40;12.30;99.90
19555;DHT22;9924;50.828;6.440;2024-03-23T12:02:10;12.90;99.90
19555;DHT22;9924;50.828;6.440;2024-03-23T12:04:37;13.50;99.90
19555;DHT22;9924;50.828;6.440;2024-03-23T12:09:35;13.30;99.90
19555;DHT22;9924;50.828;6.440;2024-03-23T12:12:17;13.70;99.90
19555;DHT22;9924;50.828;6.440;2024-03-23T12:15:05;13.00;99.90
19555;DHT22;9924;50.828;6.440;2024-03-23T12:17:32;10.70;99.90
19555;DHT22;9924;50.828;6.440;2024-03-23T12:19:57;9.20;99.90
19555;DHT22;9924;50.828;6.440;2024-03-23T12:22:24;8.60;99.90
19555;DHT22;9924;50.828;6.440;2024-03-23T12:24:50;8.40;99.90
19555;DHT22;9924;50.828;6.440;2024-03-23T12:27:16;8.20;99.90
19555;DHT22;9924;50.828;6.440;2024-03-23T12:29:42;7.90;99.90
19555;DHT22;9924;50.828;6.440;2024-03-23T12:32:09;7.80;99.90
19555;DHT22;9924;50.828;6.440;2024-03-23T12:34:34;7.60;99.90
19555;DHT22;9924;50.828;6.440;2024-03-23T12:37:00;7.40;99.90
19555;DHT22;9924;50.828;6.440;2024-03-23T12:39:26;7.60;99.90
19555;DHT22;9924;50.828;6.440;2024-03-23T12:41:52;8.50;99.90
19555;DHT22;9924;50.828;6.440;2024-03-23T12:44:18;9.80;99.90
19555;DHT22;9924;50.828;6.440;2024-03-23T12:46:44;10.50;99.90
19555;DHT22;9924;50.828;6.440;2024-03-23T12:49:10;10.70;99.90
19555;DHT22;9924;50.828;6.440;2024-03-23T12:51:36;11.60;99.90
19555;DHT22;9924;50.828;6.440;2024-03-23T12:54:02;12.70;99.90
19555;DHT22;9924;50.828;6.440;2024-03-23T12:56:29;13.00;99.90
19555;DHT22;9924;50.828;6.440;2024-03-23T12:58:55;12.70;99.90
19555;DHT22;9924;50.828;6.440;2024-03-23T13:01:21;12.10;99.90
19555;DHT22;9924;50.828;6.440;2024-03-23T13:03:47;11.20;99.90
19555;DHT22;9924;50.828;6.440;2024-03-23T13:06:13;10.30;99.90
19555;DHT22;9924;50.828;6.440;2024-03-23T13:08:39;10.20;99.90
19555;DHT22;9924;50.828;6.440;2024-03-23T13:11:09;10.30;99.90
19555;DHT22;9924;50.828;6.440;2024-03-23T13:13:36;10.70;99.90
19555;DHT22;9924;50.828;6.440;2024-03-23T13:16:02;11.30;99.90
19555;DHT22;9924;50.828;6.440;2024-03-23T13:18:29;11.10;99.90
19555;DHT22;9924;50.828;6.440;2024-03-23T13:20:55;10.30;99.90
19555;DHT22;9924;50.828;6.440;2024-03-23T13:23:21;9.90;99.90
19555;DHT22;9924;50.828;6.440;2024-03-23T13:25:53;9.50;99.90
19555;DHT22;9924;50.828;6.440;2024-03-23T13:28:20;9.50;99.90
19555;DHT22;9924;50.828;6.440;2024-03-23T13:30:56;10.20;99.90
19555;DHT22;9924;50.828;6.440;2024-03-23T13:33:22;10.60;99.90
19555;DHT22;9924;50.828;6.440;2024-03-23T13:35:52;9.50;99.90
19555;DHT22;9924;50.828;6.440;2024-03-23T13:38:21;8.70;99.90
19555;DHT22;9924;50.828;6.440;2024-03-23T13:40:57;7.70;99.90
19555;DHT22;9924;50.828;6.440;2024-03-23T13:43:24;7.30;99.90
19555;DHT22;9924;50.828;6.440;2024-03-23T13:45:57;7.30;99.90
19555;DHT22;9924;50.828;6.440;2024-03-23T13:48:24;7.70;99.90
19555;DHT22;9924;50.828;6.440;2024-03-23T13:51:03;7.80;99.90
19555;DHT22;9924;50.828;6.440;2024-03-23T13:53:29;7.80;99.90
19555;DHT22;9924;50.828;6.440;2024-03-23T13:55:55;7.80;99.90
19555;DHT22;9924;50.828;6.440;2024-03-23T13:58:21;7.80;99.90
19555;DHT22;9924;50.828;6.440;2024-03-23T14:00:47;7.70;99.90
19555;DHT22;9924;50.828;6.440;2024-03-23T14:03:14;7.80;99.90
19555;DHT22;9924;50.828;6.440;2024-03-23T14:05:40;7.90;99.90
19555;DHT22;9924;50.828;6.440;2024-03-23T14:08:07;8.20;99.90
19555;DHT22;9924;50.828;6.440;2024-03-23T14:10:33;8.60;99.90
19555;DHT22;9924;50.828;6.440;2024-03-23T14:12:59;8.80;99.90
19555;DHT22;9924;50.828;6.440;2024-03-23T14:15:29;9.00;99.90
19555;DHT22;9924;50.828;6.440;2024-03-23T14:17:56;9.00;99.90
19555;DHT22;9924;50.828;6.440;2024-03-23T14:20:22;8.90;99.90
19555;DHT22;9924;50.828;6.440;2024-03-23T14:22:51;9.00;99.90
19555;DHT22;9924;50.828;6.440;2024-03-23T14:25:17;9.60;99.90
19555;DHT22;9924;50.828;6.440;2024-03-23T14:27:45;10.30;99.90
19555;DHT22;9924;50.828;6.440;2024-03-23T14:30:12;10.70;99.90
19555;DHT22;9924;50.828;6.440;2024-03-23T14:32:38;10.20;99.90
19555;DHT22;9924;50.828;6.440;2024-03-23T14:35:05;9.60;99.90
19555;DHT22;9924;50.828;6.440;2024-03-23T14:37:32;8.70;99.90
19555;DHT22;9924;50.828;6.440;2024-03-23T14:39:58;7.80;99.90
19555;DHT22;9924;50.828;6.440;2024-03-23T14:42:24;7.10;99.90
19555;DHT22;9924;50.828;6.440;2024-03-23T14:44:51;6.50;99.90
19555;DHT22;9924;50.828;6.440;2024-03-23T14:47:17;6.50;99.90
19555;DHT22;9924;50.828;6.440;2024-03-23T14:49:46;6.70;99.90
19555;DHT22;9924;50.828;6.440;2024-03-23T14:52:18;6.90;99.90
19555;DHT22;9924;50.828;6.440;2024-03-23T14:54:44;7.00;99.90
19555;DHT22;9924;50.828;6.440;2024-03-23T14:57:10;7.00;99.90
19555;DHT22;9924;50.828;6.440;2024-03-23T14:59:36;7.00;99.90
19555;DHT22;9924;50.828;6.440;2024-03-23T15:02:06;7.00;99.90
19555;DHT22;9924;50.828;6.440;2024-03-23T15:04:32;7.00;99.90
19555;DHT22;9924;50.828;6.440;2024-03-23T15:06:58;6.70;99.90
19555;DHT22;9924;50.828;6.440;2024-03-23T15:09:23;6.70;99.90
19555;DHT22;9924;50.828;6.440;2024-03-23T15:11:49;7.30;99.90
19555;DHT22;9924;50.828;6.440;2024-03-23T15:14:15;8.10;99.90
19555;DHT22;9924;50.828;6.440;2024-03-23T15:16:41;9.00;99.90
19555;DHT22;9924;50.828;6.440;2024-03-23T15:19:08;9.40;99.90
19555;DHT22;9924;50.828;6.440;2024-03-23T15:21:34;9.60;99.90
19555;DHT22;9924;50.828;6.440;2024-03-23T15:24:00;9.50;99.90
19555;DHT22;9924;50.828;6.440;2024-03-23T15:26:26;9.20;99.90
19555;DHT22;9924;50.828;6.440;2024-03-23T15:28:51;9.00;99.90
19555;DHT22;9924;50.828;6.440;2024-03-23T15:31:23;8.60;99.90
19555;DHT22;9924;50.828;6.440;2024-03-23T15:33:49;8.40;99.90
19555;DHT22;9924;50.828;6.440;2024-03-23T15:36:15;8.40;99.90
19555;DHT22;9924;50.828;6.440;2024-03-23T15:38:40;8.20;99.90
19555;DHT22;9924;50.828;6.440;2024-03-23T15:41:06;7.90;99.90
19555;DHT22;9924;50.828;6.440;2024-03-23T15:43:33;7.60;99.90
19555;DHT22;9924;50.828;6.440;2024-03-23T15:46:03;7.40;99.90
19555;DHT22;9924;50.828;6.440;2024-03-23T15:48:29;7.20;99.90
19555;DHT22;9924;50.828;6.440;2024-03-23T15:50:59;7.10;99.90
19555;DHT22;9924;50.828;6.440;2024-03-23T15:53:27;6.80;99.90
19555;DHT22;9924;50.828;6.440;2024-03-23T15:55:54;6.50;99.90
19555;DHT22;9924;50.828;6.440;2024-03-23T15:58:20;6.40;99.90
19555;DHT22;9924;50.828;6.440;2024-03-23T16:00:57;6.20;99.90
19555;DHT22;9924;50.828;6.440;2024-03-23T16:03:23;6.10;99.90
19555;DHT22;9924;50.828;6.440;2024-03-23T16:05:59;6.00;99.90
19555;DHT22;9924;50.828;6.440;2024-03-23T16:08:26;6.10;99.90
19555;DHT22;9924;50.828;6.440;2024-03-23T16:10:53;6.30;99.90
19555;DHT22;9924;50.828;6.440;2024-03-23T16:13:19;6.50;99.90
19555;DHT22;9924;50.828;6.440;2024-03-23T16:15:45;6.60;99.90
19555;DHT22;9924;50.828;6.440;2024-03-23T16:18:11;6.70;99.90
19555;DHT22;9924;50.828;6.440;2024-03-23T16:20:37;6.80;99.90
19555;DHT22;9924;50.828;6.440;2024-03-23T16:23:03;7.00;99.90
19555;DHT22;9924;50.828;6.440;2024-03-23T16:25:29;7.10;99.90
19555;DHT22;9924;50.828;6.440;2024-03-23T16:27:56;7.20;99.90
19555;DHT22;9924;50.828;6.440;2024-03-23T16:30:21;7.20;99.90
19555;DHT22;9924;50.828;6.440;2024-03-23T16:32:47;7.40;99.90
19555;DHT22;9924;50.828;6.440;2024-03-23T16:35:13;7.70;99.90
19555;DHT22;9924;50.828;6.440;2024-03-23T16:37:40;7.80;99.90
19555;DHT22;9924;50.828;6.440;2024-03-23T16:40:06;7.80;99.90
19555;DHT22;9924;50.828;6.440;2024-03-23T16:42:35;8.00;99.90
19555;DHT22;9924;50.828;6.440;2024-03-23T16:45:01;7.90;99.90
19555;DHT22;9924;50.828;6.440;2024-03-23T16:47:26;7.50;99.90
19555;DHT22;9924;50.828;6.440;2024-03-23T16:49:55;7.10;99.90
19555;DHT22;9924;50.828;6.440;2024-03-23T16:52:20;6.80;99.90
19555;DHT22;9924;50.828;6.440;2024-03-23T16:54:46;6.50;99.90
19555;DHT22;9924;50.828;6.440;2024-03-23T16:57:13;6.40;99.90
19555;DHT22;9924;50.828;6.440;2024-03-23T16:59:39;6.40;99.90